1864 NOT_NAMED (1864112S10075)


IBTrACS version v04r00. Visit IBTrACS website for data access.
Please direct all questions to the IBTrACS Q and A forum

Storm track - Intensity - Wind Radii - Intensity Data - Source Data - All data

Summary Information

Storm ID 1864112S10075
Start Apr 20 18Z
End Apr 27 06Z
ATCF IDs
Track status Best track data.

Storm track plot

Map of storm track

Intensity plots

No Intensity information for this storm


Radial wind information

No radial wind information for this storm


Position and Intensity Table

BASIN ISO_TIME_________ NATURE LAT LON
degrees north degrees east
SI 1864-04-20 18:00:00 NR -9.60 75.10
SI 21:00:00 NR -9.82 74.59
SI 1864-04-21 00:00:00 NR -10.04 74.08
SI 03:00:00 NR -10.26 73.58
SI 06:00:00 NR -10.50 73.10
SI 09:00:00 NR -10.75 72.64
SI 12:00:00 NR -11.01 72.20
SI 15:00:00 NR -11.26 71.79
SI 18:00:00 NR -11.50 71.40
SI 21:00:00 NR -11.71 71.04
SI 1864-04-22 00:00:00 NR -11.91 70.70
SI 03:00:00 NR -12.10 70.36
SI 06:00:00 NR -12.30 70.00
SI 09:00:00 NR -12.51 69.60
SI 12:00:00 NR -12.73 69.17
SI 15:00:00 NR -12.96 68.74
SI 18:00:00 NR -13.20 68.30
SI 21:00:00 NR -13.48 67.85
SI 1864-04-23 00:00:00 NR -13.77 67.41
SI 03:00:00 NR -14.05 66.98
SI 06:00:00 NR -14.30 66.60
SI 09:00:00 NR -14.49 66.29
SI 12:00:00 NR -14.66 66.02
SI 15:00:00 NR -14.82 65.76
SI 18:00:00 NR -15.00 65.50
SI 21:00:00 NR -15.22 65.20
SI 1864-04-24 00:00:00 NR -15.45 64.88
SI 03:00:00 NR -15.72 64.55
SI 06:00:00 NR -16.00 64.20
SI 09:00:00 NR -16.31 63.83
SI 12:00:00 NR -16.64 63.44
SI 15:00:00 NR -16.97 63.06
SI 18:00:00 NR -17.30 62.70
SI 21:00:00 NR -17.63 62.35
SI 1864-04-25 00:00:00 NR -17.95 62.02
SI 03:00:00 NR -18.25 61.73
SI 06:00:00 NR -18.50 61.50
SI 09:00:00 NR -18.69 61.35
SI 12:00:00 NR -18.84 61.25
SI 15:00:00 NR -18.97 61.17
SI 18:00:00 NR -19.10 61.10
SI 21:00:00 NR -19.26 60.98
SI 1864-04-26 00:00:00 NR -19.42 60.86
SI 03:00:00 NR -19.60 60.73
SI 06:00:00 NR -19.80 60.60
SI 09:00:00 NR -20.03 60.46
SI 12:00:00 NR -20.29 60.32
SI 15:00:00 NR -20.55 60.20
SI 18:00:00 NR -20.80 60.10
SI 21:00:00 NR -21.04 60.04
SI 1864-04-27 00:00:00 NR -21.27 60.01
SI 03:00:00 NR -21.49 60.00
SI 06:00:00 NR -21.70 60.00

Source Information

Agency Information
USA
TOKYO
CMA
HKO
NEWDELHI
REUNION
BOM
NADI
WELLINGTON
DS824
TD9636 cons_worldwide_trop_cyclone_18710101-19891231-005:Line=789
TD9635
NEUMANN
MLC

All available IBTrACS Data

SEASON BASIN SUBBASIN ISO_TIME_________ NATURE LAT LON DIST2LAND LANDFALL IFLAG USA SSHS TD9636 LAT TD9636 LON TD9636 STAGE STORM SPEED STORM DIR
Year degrees north degrees east km km 1 degrees north degrees east kts degrees
1864 SI MM 1864-04-20 18:00:00 NR -9.60 75.10 1840 1840 __________O___ -1 -9.60 75.10 7 11 247
1864 SI MM 21:00:00 NR -9.82 74.59 1879 1879 __________P___ -1 -9.82 74.59 7 11 247
1864 SI MM 1864-04-21 00:00:00 NR -10.04 74.08 1920 1920 __________P___ -1 -10.04 74.08 7 11 246
1864 SI MM 03:00:00 NR -10.26 73.58 1971 1968 __________P___ -1 -10.26 73.58 7 11 244
1864 SI MM 06:00:00 NR -10.50 73.10 1968 1920 __________O___ -1 -10.50 73.10 7 10 242
1864 SI MM 09:00:00 NR -10.75 72.64 1904 1856 __________P___ -1 -10.75 72.64 7 10 240
1864 SI MM 12:00:00 NR -11.01 72.20 1856 1807 __________P___ -1 -11.01 72.20 7 10 239
1864 SI MM 15:00:00 NR -11.26 71.79 1800 1752 __________P___ -1 -11.26 71.79 7 9 238
1864 SI MM 18:00:00 NR -11.50 71.40 1752 1712 __________O___ -1 -11.50 71.40 7 9 239
1864 SI MM 21:00:00 NR -11.71 71.04 1703 1664 __________P___ -1 -11.71 71.04 7 8 239
1864 SI MM 1864-04-22 00:00:00 NR -11.91 70.70 1664 1624 __________P___ -1 -11.91 70.70 7 8 240
1864 SI MM 03:00:00 NR -12.10 70.36 1624 1576 __________P___ -1 -12.10 70.36 7 8 240
1864 SI MM 06:00:00 NR -12.30 70.00 1576 1527 __________O___ -1 -12.30 70.00 7 9 241
1864 SI MM 09:00:00 NR -12.51 69.60 1527 1479 __________P___ -1 -12.51 69.60 7 9 242
1864 SI MM 12:00:00 NR -12.73 69.17 1479 1431 __________P___ -1 -12.73 69.17 7 10 242
1864 SI MM 15:00:00 NR -12.96 68.74 1415 1367 __________P___ -1 -12.96 68.74 7 10 241
1864 SI MM 18:00:00 NR -13.20 68.30 1367 1312 __________O___ -1 -13.20 68.30 7 10 239
1864 SI MM 21:00:00 NR -13.48 67.85 1312 1255 __________P___ -1 -13.48 67.85 7 10 237
1864 SI MM 1864-04-23 00:00:00 NR -13.77 67.41 1249 1201 __________P___ -1 -13.77 67.41 7 10 236
1864 SI MM 03:00:00 NR -14.05 66.98 1201 1146 __________P___ -1 -14.05 66.98 7 9 236
1864 SI MM 06:00:00 NR -14.30 66.60 1146 1107 __________O___ -1 -14.30 66.60 7 8 236
1864 SI MM 09:00:00 NR -14.49 66.29 1107 1074 __________P___ -1 -14.49 66.29 7 7 238
1864 SI MM 12:00:00 NR -14.66 66.02 1067 1043 __________P___ -1 -14.66 66.02 7 6 237
1864 SI MM 15:00:00 NR -14.82 65.76 1043 1004 __________P___ -1 -14.82 65.76 7 6 236
1864 SI MM 18:00:00 NR -15.00 65.50 1004 965 __________O___ -1 -15.00 65.50 7 7 234
1864 SI MM 21:00:00 NR -15.22 65.20 965 926 __________P___ -1 -15.22 65.20 7 8 233
1864 SI MM 1864-04-24 00:00:00 NR -15.45 64.88 919 880 __________P___ -1 -15.45 64.88 7 8 231
1864 SI MM 03:00:00 NR -15.72 64.55 871 826 __________P___ -1 -15.72 64.55 7 9 230
1864 SI MM 06:00:00 NR -16.00 64.20 826 771 __________O___ -1 -16.00 64.20 7 9 229
1864 SI MM 09:00:00 NR -16.31 63.83 771 726 __________P___ -1 -16.31 63.83 7 10 229
1864 SI MM 12:00:00 NR -16.64 63.44 717 666 __________P___ -1 -16.64 63.44 7 10 228
1864 SI MM 15:00:00 NR -16.97 63.06 666 612 __________P___ -1 -16.97 63.06 7 10 227
1864 SI MM 18:00:00 NR -17.30 62.70 612 568 __________O___ -1 -17.30 62.70 7 10 226
1864 SI MM 21:00:00 NR -17.63 62.35 559 514 __________P___ -1 -17.63 62.35 7 9 225
1864 SI MM 1864-04-25 00:00:00 NR -17.95 62.02 509 470 __________P___ -1 -17.95 62.02 7 9 224
1864 SI MM 03:00:00 NR -18.25 61.73 470 437 __________P___ -1 -18.25 61.73 7 7 222
1864 SI MM 06:00:00 NR -18.50 61.50 437 417 __________O___ -1 -18.50 61.50 7 6 220
1864 SI MM 09:00:00 NR -18.69 61.35 408 403 __________P___ -1 -18.69 61.35 7 4 216
1864 SI MM 12:00:00 NR -18.84 61.25 393 384 __________P___ -1 -18.84 61.25 7 3 210
1864 SI MM 15:00:00 NR -18.97 61.17 384 370 __________P___ -1 -18.97 61.17 7 3 207
1864 SI MM 18:00:00 NR -19.10 61.10 370 356 __________O___ -1 -19.10 61.10 7 3 212
1864 SI MM 21:00:00 NR -19.26 60.98 352 339 __________P___ -1 -19.26 60.98 7 4 216
1864 SI MM 1864-04-26 00:00:00 NR -19.42 60.86 339 313 __________P___ -1 -19.42 60.86 7 4 214
1864 SI MM 03:00:00 NR -19.60 60.73 313 297 __________P___ -1 -19.60 60.73 7 5 213
1864 SI MM 06:00:00 NR -19.80 60.60 297 283 __________O___ -1 -19.80 60.60 7 5 210
1864 SI MM 09:00:00 NR -20.03 60.46 283 260 __________P___ -1 -20.03 60.46 7 6 208
1864 SI MM 12:00:00 NR -20.29 60.32 260 250 __________P___ -1 -20.29 60.32 7 6 206
1864 SI MM 15:00:00 NR -20.55 60.20 251 243 __________P___ -1 -20.55 60.20 7 6 202
1864 SI MM 18:00:00 NR -20.80 60.10 245 241 __________O___ -1 -20.80 60.10 7 5 197
1864 SI MM 21:00:00 NR -21.04 60.04 241 241 __________P___ -1 -21.04 60.04 7 5 191
1864 SI MM 1864-04-27 00:00:00 NR -21.27 60.01 254 254 __________P___ -1 -21.27 60.01 7 4 185
1864 SI MM 03:00:00 NR -21.49 60.00 263 263 __________P___ -1 -21.49 60.00 7 4 184
1864 SI MM 06:00:00 NR -21.70 60.00 273 __________O___ -1 -21.70 60.00 7 4 0